M I D A S
Marine Information and Data Acquisition System
Tripno 1872 of the Zeeleeuw from 2010-04-30 10:37:57 to 2010-04-30 13:23:04
Back to CruiseResearch ActivitiesStationsMapUnderway DataData graphs

EquipmentUnitsComments
TimeDGPSUTC
LatitudeDGPSDM.mWGS84
LongitudeDGPSDM.mWGS84
SpeedMeteo Stationm/sRelative wind speed
DirectionMeteo StationdegRelative wind direction
TemperatureMeteo Stationdeg CelciusAir temperature
PressureMeteo StationPaAtmospheric pressure
HumidityMeteo Station%Relative humidity
Missing or incorrect values are displayed as -999
Metereological data collected by the RV Zeeleeuw from 2010-04-30 10:41:07 to 2010-04-30 13:44:27
                                                                                    Next 1000 lines
Time Latitude Longitude Speed Direction Temperature Pressure Humidity
2010-04-30 10:41:16 51°13.662 2°55.959 3.3 29 11.2 101120 40
2010-04-30 10:41:21 51°13.662 2°55.957 3.1 75 11.2 101120 40
2010-04-30 10:41:26 51°13.662 2°55.955 6.2 24 11.3 101110 39
2010-04-30 10:41:31 51°13.664 2°55.952 2.8 56 11.3 101110 39
2010-04-30 10:41:36 51°13.665 2°55.948 5 18 11.3 101120 40
2010-04-30 10:41:41 51°13.666 2°55.945 5.4 76 11.3 101120 40
2010-04-30 10:41:47 51°13.668 2°55.94 4.3 22 11.3 101120 39
2010-04-30 10:41:53 51°13.67 2°55.934 2.5 58 11.3 101120 39
2010-04-30 10:41:58 51°13.671 2°55.929 4.3 21 11.3 101120 40
2010-04-30 10:42:04 51°13.673 2°55.922 3.4 81 11.3 101120 40
2010-04-30 10:42:09 51°13.675 2°55.916 2.5 26 11.3 101120 38
2010-04-30 10:42:14 51°13.677 2°55.91 5.9 49 11.3 101120 38
2010-04-30 10:42:19 51°13.679 2°55.903 8.5 22 11.4 101120 38
2010-04-30 10:42:24 51°13.681 2°55.896 5.8 54 11.4 101120 38
2010-04-30 10:42:29 51°13.683 2°55.888 6.9 26 11.3 101110 38
2010-04-30 10:42:34 51°13.684 2°55.88 4.4 80 11.3 101110 38
2010-04-30 10:42:39 51°13.686 2°55.872 7.3 22 11.4 101120 38
2010-04-30 10:42:44 51°13.687 2°55.863 8 55 11.4 101120 38
2010-04-30 10:42:49 51°13.689 2°55.855 7.7 26 11.3 101110 39
2010-04-30 10:42:54 51°13.69 2°55.846 7.7 76 11.3 101110 39
2010-04-30 10:42:59 51°13.692 2°55.837 7 20 11.3 101120 37
2010-04-30 10:43:04 51°13.693 2°55.829 6.7 50 11.3 101120 37
2010-04-30 10:43:09 51°13.694 2°55.82 5.2 27 11.3 101120 39
2010-04-30 10:43:14 51°13.695 2°55.812 6.7 75 11.3 101120 39
2010-04-30 10:43:19 51°13.697 2°55.803 8.6 21 11.2 101120 37
2010-04-30 10:43:24 51°13.698 2°55.795 7.3 74 11.2 101120 37
2010-04-30 10:43:29 51°13.699 2°55.788 6.5 21 11.2 101120 39
2010-04-30 10:43:34 51°13.7 2°55.78 7.3 52 11.2 101120 39
2010-04-30 10:43:39 51°13.701 2°55.773 7.7 25 11.2 101120 38
2010-04-30 10:43:44 51°13.702 2°55.767 7 78 11.2 101120 38
2010-04-30 10:43:49 51°13.702 2°55.763 5 21 11.1 101120 36
2010-04-30 10:43:54 51°13.703 2°55.76 3.6 53 11.1 101120 36
2010-04-30 10:43:59 51°13.703 2°55.759 1.8 19 11.1 101130 39
2010-04-30 10:44:04 51°13.703 2°55.759 2.9 82 11.1 101130 39
2010-04-30 10:44:09 51°13.704 2°55.759 2.8 29 11.1 101120 37
2010-04-30 10:44:14 51°13.704 2°55.76 5.1 49 11.1 101120 37
2010-04-30 10:44:19 51°13.705 2°55.761 3.7 27 11.1 101120 37
2010-04-30 10:44:24 51°13.705 2°55.762 5.6 80 11.1 101120 37
2010-04-30 10:44:29 51°13.706 2°55.762 3.9 26 11.1 101120 39
2010-04-30 10:44:34 51°13.706 2°55.762 4.1 78 11.1 101120 39
2010-04-30 10:44:39 51°13.705 2°55.761 4 26 11.1 101130 39
2010-04-30 10:44:44 51°13.705 2°55.759 5.6 75 11.1 101130 39
2010-04-30 10:44:49 51°13.704 2°55.756 3.6 270 11.1 101130 38
2010-04-30 10:44:54 51°13.703 2°55.753 4.7 82 11.1 101130 38
2010-04-30 10:44:59 51°13.701 2°55.751 7 22 11.1 101130 39
2010-04-30 10:45:04 51°13.699 2°55.748 6.1 309 11.1 101130 39
2010-04-30 10:45:09 51°13.698 2°55.746 6.6 24 11.1 101130 37
2010-04-30 10:45:14 51°13.697 2°55.743 8.4 75 11.1 101130 37
2010-04-30 10:45:19 51°13.696 2°55.742 6.8 270 11.1 101130 37
2010-04-30 10:45:24 51°13.696 2°55.742 5.4 304 11.1 101130 37
2010-04-30 10:45:29 51°13.697 2°55.742 4.3 263 11.1 101130 37
2010-04-30 10:45:34 51°13.698 2°55.742 7.5 307 11.1 101130 37
2010-04-30 10:45:39 51°13.7 2°55.742 5.7 259 11.1 101140 40
2010-04-30 10:45:44 51°13.702 2°55.742 2.7 284 11.1 101140 40
2010-04-30 10:45:49 51°13.706 2°55.741 3.9 248 11.1 101140 38
2010-04-30 10:45:54 51°13.71 2°55.74 2.8 300 11.1 101140 38
2010-04-30 10:45:59 51°13.714 2°55.737 5.3 20 11.1 101140 39
2010-04-30 10:46:04 51°13.719 2°55.734 3.6 281 11.1 101140 39
2010-04-30 10:46:09 51°13.725 2°55.728 3.6 22 11.1 101130 39
2010-04-30 10:46:14 51°13.731 2°55.723 5.2 307 11.1 101130 39
2010-04-30 10:46:19 51°13.738 2°55.717 5.4 20 11.1 101130 37
2010-04-30 10:46:24 51°13.746 2°55.71 5.7 284 11.1 101130 37
2010-04-30 10:46:29 51°13.754 2°55.702 6.1 317 11.1 101120 36
2010-04-30 10:46:34 51°13.763 2°55.695 6.3 303 11.1 101120 36
2010-04-30 10:46:39 51°13.773 2°55.687 7 20 11.1 101110 40
2010-04-30 10:46:44 51°13.783 2°55.679 6.8 278 11.1 101110 40
2010-04-30 10:46:49 51°13.794 2°55.671 4.2 20 11.1 101110 38
2010-04-30 10:46:54 51°13.805 2°55.662 3.5 285 11.1 101110 38
2010-04-30 10:46:59 51°13.816 2°55.652 3.8 27 11.1 101100 38
2010-04-30 10:47:04 51°13.827 2°55.643 3.7 283 11.1 101100 38
2010-04-30 10:47:09 51°13.839 2°55.633 5.1 321 11.1 101120 38
2010-04-30 10:47:14 51°13.851 2°55.623 2.6 277 11.1 101120 38
2010-04-30 10:47:19 51°13.863 2°55.614 7 316 11.2 101120 37
2010-04-30 10:47:24 51°13.875 2°55.606 6.1 285 11.2 101120 37
2010-04-30 10:47:29 51°13.888 2°55.597 5.6 319 11.2 101110 38
2010-04-30 10:47:34 51°13.901 2°55.588 3 285 11.2 101110 38
2010-04-30 10:47:39 51°13.913 2°55.579 7.5 318 11.2 101110 37
2010-04-30 10:47:44 51°13.926 2°55.571 7.4 282 11.2 101110 37
2010-04-30 10:47:49 51°13.939 2°55.562 7.3 25 11.2 101110 38
2010-04-30 10:47:54 51°13.952 2°55.554 6.5 284 11.2 101110 38
2010-04-30 10:47:59 51°13.965 2°55.544 8.3 27 11.3 101110 38
2010-04-30 10:48:04 51°13.977 2°55.535 7.5 283 11.3 101110 38
2010-04-30 10:48:09 51°13.99 2°55.526 4.4 330 11.3 101090 39
2010-04-30 10:48:14 51°14.003 2°55.517 5.4 285 11.3 101090 39
2010-04-30 10:48:19 51°14.016 2°55.508 4.7 325 11.3 101110 38
2010-04-30 10:48:24 51°14.029 2°55.499 6.9 286 11.3 101110 38
2010-04-30 10:48:29 51°14.042 2°55.49 7.5 21 11.3 101110 39
2010-04-30 10:48:34 51°14.054 2°55.48 8.3 306 11.3 101110 39
2010-04-30 10:48:39 51°14.067 2°55.471 5.2 20 11.3 101120 37
2010-04-30 10:48:44 51°14.08 2°55.46 4.6 280 11.3 101120 37
2010-04-30 10:48:49 51°14.092 2°55.45 6.1 19 11.3 101110 38
2010-04-30 10:48:54 51°14.105 2°55.439 7.3 324 11.3 101110 38
2010-04-30 10:48:59 51°14.118 2°55.429 9.4 319 11.3 101110 37
2010-04-30 10:49:04 51°14.131 2°55.418 8.9 284 11.3 101110 37
2010-04-30 10:49:09 51°14.144 2°55.408 6.6 20 11.3 101110 37
2010-04-30 10:49:14 51°14.157 2°55.397 7.4 284 11.3 101110 37
2010-04-30 10:49:19 51°14.17 2°55.386 8.3 24 11.3 101120 38
2010-04-30 10:49:24 51°14.184 2°55.375 8.6 306 11.3 101120 38
2010-04-30 10:49:29 51°14.197 2°55.364 9.3 26 11.3 101100 39
2010-04-30 10:49:34 51°14.21 2°55.351 9.7 279 11.3 101100 39
2010-04-30 10:49:39 51°14.224 2°55.34 10.3 22 11.3 101110 38
2010-04-30 10:49:43 51°14.234 2°55.33 11.7 285 11.3 101110 38
2010-04-30 10:49:48 51°14.248 2°55.318 11.8 21 11.4 101110 38
2010-04-30 10:49:53 51°14.262 2°55.306 9.6 284 11.4 101110 38
2010-04-30 10:49:58 51°14.274 2°55.292 8.4 20 11.4 101100 39
2010-04-30 10:50:03 51°14.288 2°55.279 7.7 284 11.4 101100 39
2010-04-30 10:50:07 51°14.298 2°55.268 9.3 28 11.4 101100 38
2010-04-30 10:50:12 51°14.312 2°55.254 9.3 278 11.4 101100 38
2010-04-30 10:50:17 51°14.325 2°55.241 10.4 24 11.3 101100 39
2010-04-30 10:50:22 51°14.339 2°55.227 10.6 288 11.3 101100 39
2010-04-30 10:50:27 51°14.353 2°55.214 10.8 20 11.3 101100 38
2010-04-30 10:50:31 51°14.364 2°55.203 10.4 281 11.3 101100 38
2010-04-30 10:50:37 51°14.381 2°55.187 12.8 24 11.3 101100 39
2010-04-30 10:50:42 51°14.396 2°55.174 11.9 281 11.3 101100 39
2010-04-30 10:50:47 51°14.41 2°55.16 11.9 22 11.3 101090 38
2010-04-30 10:50:51 51°14.422 2°55.149 11.5 287 11.3 101090 38
2010-04-30 10:50:56 51°14.436 2°55.134 10.7 18 11.2 101080 38
2010-04-30 10:51:01 51°14.45 2°55.118 11.6 281 11.2 101080 38
2010-04-30 10:51:06 51°14.465 2°55.103 12.1 27 11.2 101070 37
2010-04-30 10:51:11 51°14.48 2°55.087 12.2 287 11.2 101070 37
2010-04-30 10:51:15 51°14.492 2°55.075 12.3 23 11.2 101080 38
2010-04-30 10:51:21 51°14.509 2°55.055 12 283 11.2 101080 38
2010-04-30 10:51:26 51°14.523 2°55.038 13.7 23 11.2 101080 38
2010-04-30 10:51:31 51°14.537 2°55.019 14.2 281 11.2 101080 38
2010-04-30 10:51:35 51°14.547 2°55.002 13.5 27 11.1 101080 38
2010-04-30 10:51:41 51°14.561 2°54.976 12.4 278 11.1 101080 38
2010-04-30 10:51:46 51°14.573 2°54.954 13.2 24 11.1 101070 37
2010-04-30 10:51:51 51°14.586 2°54.934 11.3 280 11.1 101070 37
2010-04-30 10:51:55 51°14.598 2°54.92 11.7 28 11.1 101060 37
2010-04-30 10:52:01 51°14.615 2°54.899 11.4 283 11.1 101060 37
2010-04-30 10:52:06 51°14.631 2°54.884 12.2 24 11.1 101060 37
2010-04-30 10:52:11 51°14.646 2°54.867 11.1 280 11.1 101060 37
2010-04-30 10:52:15 51°14.658 2°54.854 13.2 24 11 101080 39
2010-04-30 10:52:20 51°14.673 2°54.837 12.7 282 11 101080 39
2010-04-30 10:52:26 51°14.692 2°54.817 10.8 21 11 101070 38
2010-04-30 10:52:31 51°14.708 2°54.802 11.7 283 11 101070 38
2010-04-30 10:52:36 51°14.724 2°54.787 11.7 24 11 101070 37
2010-04-30 10:52:41 51°14.74 2°54.773 10.6 286 11 101070 37
2010-04-30 10:52:46 51°14.757 2°54.76 11.5 20 11 101070 38
2010-04-30 10:52:51 51°14.772 2°54.745 9.7 285 11 101070 38
2010-04-30 10:52:55 51°14.786 2°54.735 10.5 27 11 101070 38
2010-04-30 10:53:01 51°14.805 2°54.716 10.5 284 11 101070 38
2010-04-30 10:53:06 51°14.821 2°54.702 13.3 21 11 101080 38
2010-04-30 10:53:11 51°14.837 2°54.687 10.8 287 11 101080 38
2010-04-30 10:53:15 51°14.85 2°54.676 11.6 20 11 101090 39
2010-04-30 10:53:21 51°14.87 2°54.659 12.3 277 11 101090 39
2010-04-30 10:53:26 51°14.886 2°54.644 10.8 24 11 101080 38
2010-04-30 10:53:31 51°14.903 2°54.63 12 307 11 101080 38
2010-04-30 10:53:35 51°14.916 2°54.618 11.8 23 11 101070 39
2010-04-30 10:53:41 51°14.935 2°54.6 11.1 285 11 101070 39
2010-04-30 10:53:46 51°14.951 2°54.585 12.4 22 11 101080 38
2010-04-30 10:53:51 51°14.967 2°54.57 11.9 277 11 101080 38
2010-04-30 10:53:55 51°14.979 2°54.558 11.6 26 11 101080 38
2010-04-30 10:54:01 51°14.998 2°54.541 10.5 283 11 101080 38
2010-04-30 10:54:06 51°15.014 2°54.527 11.6 25 11 101090 38
2010-04-30 10:54:11 51°15.029 2°54.51 11.8 285 11 101090 38
2010-04-30 10:54:15 51°15.042 2°54.499 12 27 11 101070 37
2010-04-30 10:54:21 51°15.06 2°54.479 11.7 279 11 101070 37
2010-04-30 10:54:26 51°15.076 2°54.464 10.9 27 11 101080 37
2010-04-30 10:54:31 51°15.091 2°54.448 11.4 279 11 101080 37
2010-04-30 10:54:35 51°15.104 2°54.435 10.9 25 10.9 101080 38
2010-04-30 10:54:41 51°15.122 2°54.416 10.1 285 10.9 101080 38
2010-04-30 10:54:46 51°15.137 2°54.399 11.6 24 10.9 101070 39
2010-04-30 10:54:51 51°15.152 2°54.384 12.4 284 10.9 101070 39
2010-04-30 10:54:55 51°15.164 2°54.37 12 21 10.9 101080 38
2010-04-30 10:55:01 51°15.183 2°54.351 11.1 279 10.9 101080 38
2010-04-30 10:55:06 51°15.198 2°54.334 11.8 23 10.9 101090 38
2010-04-30 10:55:11 51°15.213 2°54.318 12.1 281 10.9 101090 38
2010-04-30 10:55:15 51°15.225 2°54.305 12.3 25 10.9 101070 39
2010-04-30 10:55:21 51°15.243 2°54.283 11.1 281 10.9 101070 39
2010-04-30 10:55:26 51°15.258 2°54.266 10 22 10.9 101070 38
2010-04-30 10:55:31 51°15.272 2°54.248 10.6 285 10.9 101070 38
2010-04-30 10:55:36 51°15.287 2°54.231 12.8 22 10.9 101080 38
2010-04-30 10:55:41 51°15.301 2°54.212 13 280 10.9 101080 38
2010-04-30 10:55:46 51°15.316 2°54.194 12.3 25 10.9 101080 39
2010-04-30 10:55:51 51°15.33 2°54.175 12.6 279 10.9 101080 39
2010-04-30 10:55:56 51°15.345 2°54.157 12.3 24 10.9 101080 39
2010-04-30 10:56:01 51°15.359 2°54.138 12.7 278 10.9 101080 39
2010-04-30 10:56:06 51°15.373 2°54.119 12.5 24 10.8 101080 38
2010-04-30 10:56:11 51°15.387 2°54.1 13.3 279 10.8 101080 38
2010-04-30 10:56:15 51°15.399 2°54.085 12.1 23 10.8 101070 38
2010-04-30 10:56:21 51°15.416 2°54.063 12.5 279 10.8 101070 38
2010-04-30 10:56:26 51°15.43 2°54.044 11.4 25 10.8 101060 38
2010-04-30 10:56:31 51°15.445 2°54.026 13.2 281 10.8 101060 38
2010-04-30 10:56:35 51°15.456 2°54.01 12.1 21 10.8 101060 38
2010-04-30 10:56:41 51°15.473 2°53.989 12.5 282 10.8 101060 38
2010-04-30 10:56:46 51°15.488 2°53.97 11.2 25 10.8 101070 38
2010-04-30 10:56:51 51°15.502 2°53.952 10.9 286 10.8 101070 38
2010-04-30 10:56:55 51°15.514 2°53.937 12.7 25 10.8 101060 38
2010-04-30 10:57:01 51°15.531 2°53.915 12.2 280 10.8 101060 38
2010-04-30 10:57:06 51°15.545 2°53.896 11.4 25 10.8 101060 37
2010-04-30 10:57:11 51°15.56 2°53.878 11.2 278 10.8 101060 37
2010-04-30 10:57:16 51°15.574 2°53.859 12.5 22 10.8 101070 39
2010-04-30 10:57:21 51°15.588 2°53.841 11.2 279 10.8 101070 39
2010-04-30 10:57:26 51°15.603 2°53.822 12.2 25 10.8 101060 39
2010-04-30 10:57:31 51°15.617 2°53.803 12.4 284 10.8 101060 39
2010-04-30 10:57:36 51°15.631 2°53.784 12.3 20 10.8 101070 38
2010-04-30 10:57:41 51°15.645 2°53.764 13 282 10.8 101070 38
2010-04-30 10:57:46 51°15.659 2°53.745 12.5 20 10.8 101070 38
2010-04-30 10:57:51 51°15.672 2°53.724 11.1 278 10.8 101070 38
2010-04-30 10:57:56 51°15.686 2°53.705 10.6 24 10.8 101070 39
2010-04-30 10:58:01 51°15.699 2°53.684 11.9 286 10.8 101070 39
2010-04-30 10:58:05 51°15.71 2°53.668 11.3 23 10.8 101060 39
2010-04-30 10:58:11 51°15.726 2°53.643 12.3 281 10.8 101060 39
2010-04-30 10:58:15 51°15.737 2°53.627 10.8 21 10.8 101060 38
2010-04-30 10:58:21 51°15.753 2°53.602 12.7 285 10.8 101060 38
2010-04-30 10:58:26 51°15.767 2°53.581 11.1 22 10.8 101060 39
2010-04-30 10:58:31 51°15.78 2°53.561 12.3 279 10.8 101060 39
2010-04-30 10:58:35 51°15.791 2°53.545 11.1 24 10.8 101060 38
2010-04-30 10:58:41 51°15.807 2°53.52 14.1 287 10.8 101060 38
2010-04-30 10:58:46 51°15.821 2°53.5 11.9 26 10.8 101070 39
2010-04-30 10:58:51 51°15.834 2°53.479 11.5 279 10.8 101070 39
2010-04-30 10:58:55 51°15.844 2°53.462 10.8 22 10.8 101060 38
2010-04-30 10:59:00 51°15.858 2°53.442 11.3 282 10.8 101060 38
2010-04-30 10:59:06 51°15.874 2°53.417 11.9 26 10.8 101070 39
2010-04-30 10:59:11 51°15.887 2°53.397 12.5 284 10.8 101070 39
2010-04-30 10:59:16 51°15.901 2°53.377 13.1 25 10.8 101070 39
2010-04-30 10:59:21 51°15.915 2°53.36 14.2 285 10.8 101070 39
2010-04-30 10:59:26 51°15.93 2°53.34 13.2 22 10.8 101070 38
2010-04-30 10:59:31 51°15.945 2°53.324 12.2 277 10.8 101070 38
2010-04-30 10:59:35 51°15.956 2°53.309 12.1 21 10.8 101070 39
2010-04-30 10:59:41 51°15.974 2°53.289 11.6 278 10.8 101070 39
2010-04-30 10:59:46 51°15.99 2°53.274 12.9 25 10.7 101060 37
2010-04-30 10:59:51 51°16.005 2°53.258 11.2 284 10.7 101060 37
2010-04-30 10:59:56 51°16.021 2°53.243 10.3 21 10.7 101070 38
2010-04-30 11:00:01 51°16.036 2°53.228 11.6 287 10.7 101070 38
2010-04-30 11:00:05 51°16.049 2°53.217 11.5 23 10.7 101070 38
2010-04-30 11:00:11 51°16.068 2°53.2 13.2 284 10.7 101070 38
2010-04-30 11:00:15 51°16.081 2°53.189 14.8 25 10.7 101080 38
2010-04-30 11:00:21 51°16.1 2°53.174 15.1 278 10.7 101080 38
2010-04-30 11:00:26 51°16.116 2°53.16 14 20 10.7 101080 38
2010-04-30 11:00:31 51°16.133 2°53.148 14.5 284 10.7 101080 38
2010-04-30 11:00:35 51°16.146 2°53.136 11 23 10.7 101080 38
2010-04-30 11:00:41 51°16.166 2°53.122 12 286 10.7 101080 38
2010-04-30 11:00:46 51°16.182 2°53.108 11.1 25 10.7 101080 38
2010-04-30 11:00:51 51°16.198 2°53.096 10.7 279 10.7 101080 38
2010-04-30 11:00:55 51°16.211 2°53.086 10.6 25 10.7 101070 38
2010-04-30 11:01:01 51°16.231 2°53.07 11 285 10.7 101070 38
2010-04-30 11:01:06 51°16.247 2°53.057 10.1 26 10.7 101080 39
2010-04-30 11:01:11 51°16.264 2°53.045 12.3 285 10.7 101080 39
2010-04-30 11:01:15 51°16.277 2°53.036 9.7 20 10.7 101090 38
2010-04-30 11:01:21 51°16.297 2°53.022 11.4 285 10.7 101090 38
2010-04-30 11:01:26 51°16.314 2°53.01 10.2 24 10.8 101080 39
2010-04-30 11:01:31 51°16.331 2°52.998 11.1 278 10.8 101080 39
2010-04-30 11:01:35 51°16.344 2°52.989 10.6 28 10.8 101070 39
2010-04-30 11:01:41 51°16.364 2°52.976 10.7 283 10.8 101070 39
2010-04-30 11:01:46 51°16.381 2°52.964 9.6 21 10.8 101080 39
2010-04-30 11:01:51 51°16.398 2°52.953 9.8 283 10.8 101080 39
2010-04-30 11:01:56 51°16.415 2°52.942 10.5 21 10.8 101090 38
2010-04-30 11:02:01 51°16.431 2°52.931 10.1 282 10.8 101090 38
2010-04-30 11:02:06 51°16.448 2°52.92 10.5 22 10.8 101100 39
2010-04-30 11:02:11 51°16.465 2°52.909 12 278 10.8 101100 39
2010-04-30 11:02:15 51°16.478 2°52.899 12 28 10.8 101080 38
2010-04-30 11:02:21 51°16.498 2°52.886 9.9 280 10.8 101080 38
2010-04-30 11:02:26 51°16.515 2°52.874 10.6 27 10.8 101090 37
2010-04-30 11:02:31 51°16.532 2°52.863 10.6 279 10.8 101090 37
2010-04-30 11:02:36 51°16.548 2°52.851 10.6 26 10.8 101080 39
2010-04-30 11:02:41 51°16.566 2°52.841 10.5 286 10.8 101080 39
2010-04-30 11:02:46 51°16.582 2°52.829 11.1 20 10.8 101090 38
2010-04-30 11:02:51 51°16.599 2°52.818 11.7 279 10.8 101090 38
2010-04-30 11:02:55 51°16.612 2°52.808 10.4 27 10.8 101080 38
2010-04-30 11:03:01 51°16.632 2°52.796 10.3 280 10.8 101080 38
2010-04-30 11:03:06 51°16.649 2°52.783 10.3 26 10.8 101080 39
2010-04-30 11:03:11 51°16.666 2°52.773 12.9 282 10.8 101080 39
2010-04-30 11:03:16 51°16.682 2°52.76 9.1 21 10.8 101070 39
2010-04-30 11:03:21 51°16.699 2°52.749 11.1 286 10.8 101070 39
2010-04-30 11:03:26 51°16.715 2°52.737 11.1 18 10.8 101080 38
2010-04-30 11:03:31 51°16.732 2°52.726 12.2 279 10.8 101080 38
2010-04-30 11:03:35 51°16.745 2°52.716 12 25 10.8 101070 39
2010-04-30 11:03:41 51°16.765 2°52.702 13.2 277 10.8 101070 39
2010-04-30 11:03:46 51°16.781 2°52.691 10.9 27 10.8 101090 38
2010-04-30 11:03:51 51°16.798 2°52.679 10.3 287 10.8 101090 38
2010-04-30 11:03:56 51°16.814 2°52.668 9.5 22 10.8 101080 39
2010-04-30 11:04:01 51°16.831 2°52.656 12 277 10.8 101080 39
2010-04-30 11:04:05 51°16.844 2°52.646 10.7 23 10.8 101090 39
2010-04-30 11:04:11 51°16.864 2°52.632 11 281 10.8 101090 39
2010-04-30 11:04:15 51°16.877 2°52.622 10.7 22 10.8 101080 38
2010-04-30 11:04:21 51°16.896 2°52.608 11.9 284 10.8 101080 38
2010-04-30 11:04:26 51°16.913 2°52.596 10.8 27 10.8 101090 38
2010-04-30 11:04:31 51°16.929 2°52.584 13 305 10.8 101090 38
2010-04-30 11:04:36 51°16.946 2°52.572 11.7 23 10.8 101080 39
2010-04-30 11:04:41 51°16.962 2°52.56 12.6 280 10.8 101080 39
2010-04-30 11:04:46 51°16.979 2°52.548 13.5 26 10.8 101090 38
2010-04-30 11:04:51 51°16.996 2°52.537 13.6 279 10.8 101090 38
2010-04-30 11:04:56 51°17.012 2°52.524 13.3 25 10.8 101080 38
2010-04-30 11:05:01 51°17.029 2°52.514 14.1 283 10.8 101080 38
2010-04-30 11:05:06 51°17.045 2°52.502 13.5 25 10.8 101090 38
2010-04-30 11:05:11 51°17.061 2°52.49 13.4 277 10.8 101090 38
2010-04-30 11:05:15 51°17.074 2°52.48 13.7 23 10.8 101080 39
2010-04-30 11:05:21 51°17.094 2°52.466 12.5 282 10.8 101080 39
2010-04-30 11:05:26 51°17.111 2°52.454 10.9 26 10.8 101070 39
2010-04-30 11:05:31 51°17.127 2°52.442 12.8 281 10.8 101070 39
2010-04-30 11:05:35 51°17.14 2°52.432 12.3 23 10.8 101080 39
2010-04-30 11:05:41 51°17.16 2°52.418 13.4 279 10.8 101080 39
2010-04-30 11:05:46 51°17.177 2°52.406 13.6 25 10.8 101080 39
2010-04-30 11:05:51 51°17.193 2°52.395 13 281 10.8 101080 39
2010-04-30 11:05:56 51°17.21 2°52.382 12.4 27 10.8 101090 39
2010-04-30 11:06:01 51°17.226 2°52.371 12.4 286 10.8 101090 39
2010-04-30 11:06:06 51°17.243 2°52.358 13.7 25 10.8 101090 38
2010-04-30 11:06:11 51°17.259 2°52.346 13.2 283 10.8 101090 38
2010-04-30 11:06:15 51°17.272 2°52.336 13.6 20 10.8 101080 39
2010-04-30 11:06:21 51°17.292 2°52.321 13.5 283 10.8 101080 39
2010-04-30 11:06:26 51°17.309 2°52.309 11.4 23 10.8 101090 38
2010-04-30 11:06:31 51°17.325 2°52.297 12.6 286 10.8 101090 38
2010-04-30 11:06:35 51°17.338 2°52.287 11.2 22 10.8 101090 38
2010-04-30 11:06:41 51°17.358 2°52.272 12.9 285 10.8 101090 38
2010-04-30 11:06:46 51°17.374 2°52.26 11.7 20 10.8 101090 39
2010-04-30 11:06:51 51°17.391 2°52.247 12 283 10.8 101090 39
2010-04-30 11:06:56 51°17.407 2°52.235 12.5 25 10.8 101080 38
2010-04-30 11:07:01 51°17.424 2°52.223 13.8 282 10.8 101080 38
2010-04-30 11:07:06 51°17.441 2°52.211 12.7 25 10.8 101070 39
2010-04-30 11:07:11 51°17.457 2°52.198 12 280 10.8 101070 39
2010-04-30 11:07:16 51°17.473 2°52.185 10.2 22 10.8 101070 38
2010-04-30 11:07:21 51°17.489 2°52.171 11.4 284 10.8 101070 38
2010-04-30 11:07:26 51°17.505 2°52.157 11 22 10.8 101050 38
2010-04-30 11:07:31 51°17.521 2°52.142 12 283 10.8 101050 38
2010-04-30 11:07:35 51°17.533 2°52.129 9 24 10.8 101060 39
2010-04-30 11:07:41 51°17.552 2°52.111 10.3 277 10.8 101060 39
2010-04-30 11:07:46 51°17.567 2°52.095 11 22 10.8 101070 37
2010-04-30 11:07:51 51°17.582 2°52.08 11.8 283 10.8 101070 37
2010-04-30 11:07:55 51°17.594 2°52.066 11.3 22 10.8 101060 39
2010-04-30 11:08:01 51°17.612 2°52.047 11.7 277 10.8 101060 39
2010-04-30 11:08:06 51°17.627 2°52.031 12.4 22 10.8 101060 39
2010-04-30 11:08:11 51°17.642 2°52.015 11.5 284 10.8 101060 39
2010-04-30 11:08:15 51°17.655 2°52.002 14 27 10.8 101060 38
2010-04-30 11:08:21 51°17.673 2°51.983 14 280 10.8 101060 38
2010-04-30 11:08:26 51°17.688 2°51.967 14.6 23 10.8 101060 39
2010-04-30 11:08:31 51°17.703 2°51.951 12.5 283 10.8 101060 39
2010-04-30 11:08:36 51°17.718 2°51.934 13.5 27 10.8 101070 39
2010-04-30 11:08:41 51°17.733 2°51.919 13.1 283 10.8 101070 39
2010-04-30 11:08:46 51°17.748 2°51.902 12.6 24 10.8 101060 39
2010-04-30 11:08:51 51°17.763 2°51.886 13.3 279 10.8 101060 39
2010-04-30 11:08:55 51°17.775 2°51.873 13.4 24 10.8 101050 39
2010-04-30 11:09:01 51°17.793 2°51.854 13.2 285 10.8 101050 39
2010-04-30 11:09:05 51°17.805 2°51.841 14 23 10.8 101060 39
2010-04-30 11:09:11 51°17.823 2°51.822 13.1 287 10.8 101060 39
2010-04-30 11:09:15 51°17.835 2°51.809 13.3 23 10.8 101050 39
2010-04-30 11:09:21 51°17.853 2°51.79 14.5 278 10.8 101050 39
2010-04-30 11:09:26 51°17.868 2°51.774 12.7 27 10.8 101050 38
2010-04-30 11:09:31 51°17.884 2°51.759 13.8 287 10.8 101050 38
2010-04-30 11:09:36 51°17.899 2°51.743 13.9 23 10.8 101060 38
2010-04-30 11:09:41 51°17.913 2°51.726 12 280 10.8 101060 38
2010-04-30 11:09:46 51°17.929 2°51.711 14.1 24 10.8 101050 39
2010-04-30 11:09:51 51°17.943 2°51.694 14.4 283 10.8 101050 39
2010-04-30 11:09:55 51°17.955 2°51.68 13.1 24 10.8 101060 39
2010-04-30 11:10:01 51°17.973 2°51.659 13.7 283 10.8 101060 39
2010-04-30 11:10:06 51°17.987 2°51.641 12.3 24 10.8 101060 39
2010-04-30 11:10:11 51°18.002 2°51.624 13.7 278 10.8 101060 39
2010-04-30 11:10:15 51°18.013 2°51.609 12.8 23 10.8 101050 39
2010-04-30 11:10:21 51°18.03 2°51.588 12.1 284 10.8 101050 39
2010-04-30 11:10:26 51°18.044 2°51.57 13.9 21 10.8 101060 37
2010-04-30 11:10:31 51°18.059 2°51.552 13 286 10.8 101060 37
2010-04-30 11:10:35 51°18.07 2°51.537 13.6 26 10.8 101050 38
2010-04-30 11:10:41 51°18.087 2°51.515 10.8 281 10.8 101050 38
2010-04-30 11:10:46 51°18.102 2°51.498 12.6 22 10.8 101070 39
2010-04-30 11:10:51 51°18.115 2°51.479 12.5 282 10.8 101070 39
2010-04-30 11:10:55 51°18.127 2°51.465 11.6 26 10.7 101060 38
2010-04-30 11:11:01 51°18.144 2°51.442 12.5 287 10.7 101060 38
2010-04-30 11:11:05 51°18.155 2°51.427 11.6 22 10.7 101060 38
2010-04-30 11:11:11 51°18.172 2°51.406 13 286 10.7 101060 38
2010-04-30 11:11:16 51°18.186 2°51.387 13.7 25 10.8 101050 39
2010-04-30 11:11:21 51°18.2 2°51.369 13.4 285 10.8 101050 39
2010-04-30 11:11:26 51°18.214 2°51.35 14 26 10.7 101050 38
2010-04-30 11:11:31 51°18.229 2°51.333 14.4 283 10.7 101050 38
2010-04-30 11:11:35 51°18.239 2°51.317 13.4 26 10.7 101040 39
2010-04-30 11:11:41 51°18.257 2°51.296 14.6 283 10.7 101040 39
2010-04-30 11:11:46 51°18.269 2°51.279 13.9 23 10.8 101050 39
2010-04-30 11:11:51 51°18.282 2°51.263 10.9 280 10.8 101050 39
2010-04-30 11:11:55 51°18.29 2°51.251 12 28 10.7 101040 38
2010-04-30 11:12:01 51°18.303 2°51.233 11.6 281 10.7 101040 38
2010-04-30 11:12:06 51°18.312 2°51.22 11.2 19 10.7 101040 39
2010-04-30 11:12:11 51°18.321 2°51.207 12 283 10.7 101040 39
2010-04-30 11:12:15 51°18.328 2°51.197 10.5 26 10.7 101060 39
2010-04-30 11:12:21 51°18.338 2°51.183 10.6 285 10.7 101060 39
2010-04-30 11:12:26 51°18.346 2°51.172 11.6 26 10.7 101050 39
2010-04-30 11:12:31 51°18.353 2°51.162 9 279 10.7 101050 39
2010-04-30 11:12:35 51°18.359 2°51.154 10.5 25 10.7 101060 38
2010-04-30 11:12:41 51°18.367 2°51.143 11.6 278 10.7 101060 38
2010-04-30 11:12:45 51°18.372 2°51.135 10.4 27 10.8 101070 39
2010-04-30 11:12:51 51°18.379 2°51.125 10.9 281 10.8 101070 39
2010-04-30 11:12:55 51°18.384 2°51.119 12.2 26 10.8 101070 39
2010-04-30 11:13:01 51°18.391 2°51.109 10.5 280 10.8 101070 39
2010-04-30 11:13:05 51°18.395 2°51.104 11 244 10.8 101070 38
2010-04-30 11:13:11 51°18.402 2°51.095 10.4 280 10.8 101070 38
2010-04-30 11:13:15 51°18.406 2°51.09 10.5 21 10.7 101060 38
2010-04-30 11:13:21 51°18.412 2°51.082 9.6 286 10.7 101060 38
2010-04-30 11:13:26 51°18.416 2°51.075 10.5 25 10.7 101070 39
2010-04-30 11:13:31 51°18.421 2°51.07 11 281 10.7 101070 39
2010-04-30 11:13:36 51°18.425 2°51.064 10.4 22 10.7 101070 39
2010-04-30 11:13:41 51°18.429 2°51.059 9.2 284 10.7 101070 39
2010-04-30 11:13:46 51°18.432 2°51.053 10.2 25 10.7 101070 38
2010-04-30 11:13:51 51°18.436 2°51.048 9.5 278 10.7 101070 38
2010-04-30 11:13:55 51°18.439 2°51.045 9.1 246 10.7 101070 40
2010-04-30 11:14:01 51°18.442 2°51.039 8.2 278 10.7 101070 40
2010-04-30 11:14:06 51°18.445 2°51.035 9.9 247 10.7 101070 39
2010-04-30 11:14:11 51°18.448 2°51.031 9.2 283 10.7 101070 39
2010-04-30 11:14:15 51°18.45 2°51.028 9.3 21 10.7 101070 38
2010-04-30 11:14:21 51°18.453 2°51.024 10.2 278 10.7 101070 38
2010-04-30 11:14:26 51°18.455 2°51.02 10.5 21 10.7 101080 39
2010-04-30 11:14:31 51°18.457 2°51.017 9 287 10.7 101080 39
2010-04-30 11:14:35 51°18.458 2°51.015 8.8 249 10.7 101070 40
2010-04-30 11:14:41 51°18.46 2°51.012 8.9 281 10.7 101070 40
2010-04-30 11:14:46 51°18.462 2°51.01 9.8 247 10.7 101080 39
2010-04-30 11:14:51 51°18.462 2°51.009 8.9 281 10.7 101080 39
2010-04-30 11:14:55 51°18.463 2°51.008 8.6 19 10.7 101080 39
2010-04-30 11:15:01 51°18.464 2°51.007 7.8 281 10.7 101080 39
2010-04-30 11:15:06 51°18.464 2°51.006 8.2 249 10.7 101080 40
2010-04-30 11:15:11 51°18.464 2°51.005 8.6 280 10.7 101080 40
2010-04-30 11:15:15 51°18.465 2°51.005 9.8 20 10.8 101080 40
2010-04-30 11:15:21 51°18.465 2°51.004 8.7 285 10.8 101080 40
2010-04-30 11:15:26 51°18.466 2°51.003 7.7 23 10.8 101080 38
2010-04-30 11:15:31 51°18.466 2°51.002 8.8 283 10.8 101080 38
2010-04-30 11:15:36 51°18.466 2°51.002 9.7 21 10.8 101080 40
2010-04-30 11:15:41 51°18.466 2°51.001 10.2 280 10.8 101080 40
2010-04-30 11:15:46 51°18.467 2°51.001 9.8 250 10.8 101080 38
2010-04-30 11:15:51 51°18.467 2°51 9 280 10.8 101080 38
2010-04-30 11:15:55 51°18.467 2°51 10.1 244 10.8 101080 39
2010-04-30 11:16:01 51°18.467 2°51 8.7 280 10.8 101080 39
2010-04-30 11:16:06 51°18.467 2°51 9.4 21 10.8 101080 39
2010-04-30 11:16:11 51°18.467 2°50.999 10 279 10.8 101080 39
2010-04-30 11:16:15 51°18.467 2°50.999 8.8 247 10.8 101070 39
2010-04-30 11:16:21 51°18.467 2°51 7.8 280 10.8 101070 39
2010-04-30 11:16:26 51°18.467 2°51 9.6 20 10.8 101070 39
2010-04-30 11:16:31 51°18.467 2°51 10 279 10.8 101070 39
2010-04-30 11:16:35 51°18.467 2°51 8.4 22 10.8 101080 39
2010-04-30 11:16:41 51°18.468 2°51 8.6 278 10.8 101080 39
2010-04-30 11:16:46 51°18.468 2°51 8.2 24 10.8 101080 39
2010-04-30 11:16:51 51°18.467 2°51.001 7.7 283 10.8 101080 39
2010-04-30 11:16:55 51°18.468 2°51.001 9.2 21 10.8 101080 40
2010-04-30 11:17:01 51°18.467 2°51.002 10.2 278 10.8 101080 40
2010-04-30 11:17:06 51°18.467 2°51.003 8.8 21 10.8 101070 39
2010-04-30 11:17:11 51°18.467 2°51.003 7.2 280 10.8 101070 39
2010-04-30 11:17:15 51°18.467 2°51.004 7.6 20 10.8 101080 38
2010-04-30 11:17:21 51°18.466 2°51.005 7.4 279 10.8 101080 38
2010-04-30 11:17:26 51°18.466 2°51.006 8.6 249 10.8 101080 38
2010-04-30 11:17:31 51°18.466 2°51.006 8.8 281 10.8 101080 38
2010-04-30 11:17:35 51°18.466 2°51.007 7.9 21 10.8 101070 39
2010-04-30 11:17:41 51°18.465 2°51.008 8 285 10.8 101070 39
2010-04-30 11:17:46 51°18.465 2°51.009 8.3 250 10.8 101070 40
2010-04-30 11:17:51 51°18.465 2°51.01 9.7 279 10.8 101070 40
2010-04-30 11:17:55 51°18.465 2°51.012 10 250 10.8 101070 40
2010-04-30 11:18:01 51°18.464 2°51.013 10.4 281 10.8 101070 40
2010-04-30 11:18:05 51°18.464 2°51.014 9.2 250 10.8 101080 39
2010-04-30 11:18:11 51°18.463 2°51.016 10.6 286 10.8 101080 39
2010-04-30 11:18:15 51°18.463 2°51.017 9.7 252 10.8 101070 39
2010-04-30 11:18:21 51°18.463 2°51.018 8.9 285 10.8 101070 39
2010-04-30 11:18:26 51°18.462 2°51.02 10.4 255 10.8 101070 37
2010-04-30 11:18:31 51°18.462 2°51.021 9.5 284 10.8 101070 37
2010-04-30 11:18:35 51°18.461 2°51.023 9.7 257 10.8 101060 39
2010-04-30 11:18:41 51°18.46 2°51.024 11.4 283 10.8 101060 39
2010-04-30 11:18:46 51°18.46 2°51.026 9.8 257 10.8 101080 38
2010-04-30 11:18:51 51°18.459 2°51.027 7.9 281 10.8 101080 38
2010-04-30 11:18:55 51°18.459 2°51.029 9.3 259 10.8 101080 40
2010-04-30 11:19:01 51°18.458 2°51.03 11.6 286 10.8 101080 40
2010-04-30 11:19:06 51°18.457 2°51.032 9.4 260 10.8 101080 38
2010-04-30 11:19:11 51°18.457 2°51.033 9.4 284 10.8 101080 38
2010-04-30 11:19:15 51°18.456 2°51.035 8 264 10.8 101080 40
2010-04-30 11:19:21 51°18.456 2°51.036 9.7 284 10.8 101080 40
2010-04-30 11:19:26 51°18.455 2°51.038 12 258 10.8 101090 39
2010-04-30 11:19:31 51°18.454 2°51.039 7.6 285 10.8 101090 39
2010-04-30 11:19:35 51°18.454 2°51.04 7.7 262 10.8 101070 38
2010-04-30 11:19:41 51°18.453 2°51.043 10.5 284 10.8 101070 38
2010-04-30 11:19:46 51°18.452 2°51.044 6.7 264 10.8 101070 39
2010-04-30 11:19:51 51°18.451 2°51.045 8.6 283 10.8 101070 39
2010-04-30 11:19:55 51°18.451 2°51.047 8.9 264 10.8 101080 39
2010-04-30 11:20:01 51°18.45 2°51.048 6.6 280 10.8 101080 39
2010-04-30 11:20:05 51°18.45 2°51.05 6 263 10.8 101070 38
2010-04-30 11:20:11 51°18.449 2°51.051 6.5 279 10.8 101070 38
2010-04-30 11:20:15 51°18.448 2°51.053 6.3 265 10.7 101070 38
2010-04-30 11:20:21 51°18.448 2°51.054 6.2 287 10.7 101070 38
2010-04-30 11:20:26 51°18.447 2°51.056 9.1 269 10.7 101070 40
2010-04-30 11:20:31 51°18.446 2°51.057 7.9 279 10.7 101070 40
2010-04-30 11:20:36 51°18.446 2°51.059 6.2 263 10.7 101070 39
2010-04-30 11:20:41 51°18.445 2°51.061 7.9 282 10.7 101070 39
2010-04-30 11:20:46 51°18.444 2°51.062 8.1 264 10.7 101070 39
2010-04-30 11:20:51 51°18.444 2°51.063 7.9 281 10.7 101070 39
2010-04-30 11:20:55 51°18.443 2°51.065 8.3 262 10.7 101080 38
2010-04-30 11:21:01 51°18.443 2°51.066 5.7 285 10.7 101080 38
2010-04-30 11:21:06 51°18.442 2°51.068 5.6 264 10.7 101080 38
2010-04-30 11:21:11 51°18.441 2°51.07 8.5 283 10.7 101080 38
2010-04-30 11:21:15 51°18.441 2°51.071 7.1 264 10.7 101080 38
2010-04-30 11:21:21 51°18.44 2°51.073 7.7 285 10.7 101080 38
2010-04-30 11:21:26 51°18.439 2°51.074 6.7 263 10.7 101080 40
2010-04-30 11:21:31 51°18.439 2°51.075 6 277 10.7 101080 40
2010-04-30 11:21:35 51°18.439 2°51.076 8.2 265 10.7 101080 39
2010-04-30 11:21:41 51°18.438 2°51.078 6.6 284 10.7 101080 39
2010-04-30 11:21:46 51°18.438 2°51.08 6 264 10.7 101070 40
2010-04-30 11:21:51 51°18.437 2°51.081 6.6 280 10.7 101070 40
2010-04-30 11:21:55 51°18.437 2°51.082 7.6 261 10.7 101080 39
2010-04-30 11:22:01 51°18.437 2°51.084 8.5 283 10.7 101080 39
2010-04-30 11:22:05 51°18.436 2°51.085 5.4 266 10.7 101070 38
2010-04-30 11:22:11 51°18.436 2°51.087 6.4 286 10.7 101070 38
2010-04-30 11:22:15 51°18.436 2°51.088 6.3 263 10.7 101070 40
2010-04-30 11:22:21 51°18.435 2°51.09 6.5 278 10.7 101070 40
2010-04-30 11:22:26 51°18.435 2°51.092 6.6 262 10.7 101080 39
2010-04-30 11:22:31 51°18.434 2°51.093 9 302 10.7 101080 39
2010-04-30 11:22:36 51°18.434 2°51.095 8.8 262 10.7 101080 39
2010-04-30 11:22:41 51°18.434 2°51.096 6.6 278 10.7 101080 39
2010-04-30 11:22:46 51°18.433 2°51.098 9.1 259 10.7 101090 38
2010-04-30 11:22:51 51°18.433 2°51.099 7.4 285 10.7 101090 38
2010-04-30 11:22:55 51°18.432 2°51.1 7.4 261 10.7 101080 38
2010-04-30 11:23:01 51°18.432 2°51.102 6.8 285 10.7 101080 38
2010-04-30 11:23:06 51°18.431 2°51.103 8.4 261 10.7 101080 38
2010-04-30 11:23:11 51°18.431 2°51.104 6.3 279 10.7 101080 38
2010-04-30 11:23:15 51°18.431 2°51.105 8 263 10.7 101080 38
2010-04-30 11:23:21 51°18.43 2°51.107 7.9 286 10.7 101080 38
2010-04-30 11:23:26 51°18.43 2°51.108 8.4 256 10.7 101080 39
2010-04-30 11:23:31 51°18.429 2°51.11 7.3 280 10.7 101080 39
2010-04-30 11:23:35 51°18.429 2°51.111 8.6 260 10.7 101080 40
2010-04-30 11:23:40 51°18.429 2°51.113 8.2 283 10.7 101080 40
2010-04-30 11:23:46 51°18.428 2°51.114 9.2 260 10.7 101080 37
2010-04-30 11:23:51 51°18.428 2°51.116 8.9 281 10.7 101080 37
2010-04-30 11:23:55 51°18.428 2°51.117 8.5 260 10.7 101070 38
2010-04-30 11:24:01 51°18.427 2°51.118 11 287 10.7 101070 38
2010-04-30 11:24:06 51°18.427 2°51.12 8.4 261 10.8 101080 38
2010-04-30 11:24:11 51°18.426 2°51.122 10.4 279 10.8 101080 38
2010-04-30 11:24:15 51°18.426 2°51.123 11 261 10.7 101080 40
2010-04-30 11:24:21 51°18.426 2°51.125 10.8 279 10.7 101080 40
2010-04-30 11:24:26 51°18.425 2°51.127 10 261 10.7 101080 38
2010-04-30 11:24:31 51°18.425 2°51.128 7.9 308 10.7 101080 38
2010-04-30 11:24:36 51°18.425 2°51.13 8 261 10.7 101080 38
2010-04-30 11:24:41 51°18.425 2°51.132 8.3 281 10.7 101080 38
2010-04-30 11:24:46 51°18.424 2°51.134 8.4 258 10.7 101070 38
2010-04-30 11:24:51 51°18.424 2°51.135 9.1 286 10.7 101070 38
2010-04-30 11:24:55 51°18.424 2°51.137 7.4 262 10.7 101070 38
2010-04-30 11:25:01 51°18.424 2°51.138 8.6 279 10.7 101070 38
2010-04-30 11:25:05 51°18.424 2°51.139 8.3 257 10.8 101070 39
2010-04-30 11:25:11 51°18.423 2°51.141 10.2 280 10.8 101070 39
2010-04-30 11:25:15 51°18.423 2°51.143 9 261 10.8 101070 38
2010-04-30 11:25:21 51°18.423 2°51.145 8.9 280 10.8 101070 38
2010-04-30 11:25:26 51°18.423 2°51.147 8.2 259 10.7 101080 39
2010-04-30 11:25:31 51°18.423 2°51.148 8.1 286 10.7 101080 39
2010-04-30 11:25:35 51°18.423 2°51.149 10.4 259 10.7 101070 38
2010-04-30 11:25:41 51°18.422 2°51.151 7 285 10.7 101070 38
2010-04-30 11:25:46 51°18.422 2°51.153 9.3 261 10.8 101070 40
2010-04-30 11:25:51 51°18.422 2°51.154 8.8 281 10.8 101070 40
2010-04-30 11:25:55 51°18.422 2°51.155 10.2 260 10.7 101080 39
2010-04-30 11:26:01 51°18.421 2°51.157 10.8 283 10.7 101080 39
2010-04-30 11:26:06 51°18.421 2°51.159 10.3 257 10.7 101070 40
2010-04-30 11:26:11 51°18.421 2°51.16 9.6 283 10.7 101070 40
2010-04-30 11:26:15 51°18.421 2°51.162 10.2 259 10.8 101070 38
2010-04-30 11:26:21 51°18.42 2°51.164 8.5 280 10.8 101070 38
2010-04-30 11:26:26 51°18.42 2°51.165 7.3 261 10.7 101080 37
2010-04-30 11:26:31 51°18.42 2°51.167 9.3 285 10.7 101080 37
2010-04-30 11:26:35 51°18.42 2°51.169 9.2 261 10.7 101070 38
2010-04-30 11:26:41 51°18.42 2°51.171 9.2 279 10.7 101070 38
2010-04-30 11:26:46 51°18.419 2°51.173 9.4 259 10.7 101070 39
2010-04-30 11:26:51 51°18.419 2°51.174 8.8 285 10.7 101070 39
2010-04-30 11:26:55 51°18.419 2°51.176 7.8 260 10.7 101080 39
2010-04-30 11:27:01 51°18.419 2°51.178 6.8 280 10.7 101080 39
2010-04-30 11:27:06 51°18.419 2°51.18 6.5 262 10.8 101070 38
2010-04-30 11:27:11 51°18.418 2°51.182 6.8 286 10.8 101070 38
2010-04-30 11:27:15 51°18.418 2°51.183 8.2 260 10.8 101070 39
2010-04-30 11:27:21 51°18.418 2°51.186 9.2 284 10.8 101070 39
2010-04-30 11:27:26 51°18.417 2°51.188 8.8 259 10.7 101070 39
2010-04-30 11:27:31 51°18.417 2°51.19 9.2 284 10.7 101070 39
2010-04-30 11:27:35 51°18.417 2°51.191 10.7 260 10.7 101080 39
2010-04-30 11:27:41 51°18.417 2°51.193 8.6 285 10.7 101080 39
2010-04-30 11:27:46 51°18.417 2°51.195 7.6 260 10.7 101070 39
2010-04-30 11:27:51 51°18.417 2°51.197 8.9 285 10.7 101070 39
2010-04-30 11:27:55 51°18.416 2°51.198 8.9 260 10.7 101080 38
2010-04-30 11:28:01 51°18.416 2°51.2 6.7 278 10.7 101080 38
2010-04-30 11:28:06 51°18.416 2°51.202 8.8 258 10.7 101070 40
2010-04-30 11:28:11 51°18.416 2°51.204 8.5 285 10.7 101070 40
2010-04-30 11:28:15 51°18.415 2°51.206 7.1 263 10.7 101080 38
2010-04-30 11:28:21 51°18.415 2°51.208 8.5 280 10.7 101080 38
2010-04-30 11:28:26 51°18.415 2°51.21 7.6 260 10.8 101070 38
2010-04-30 11:28:31 51°18.415 2°51.212 7.2 278 10.8 101070 38
2010-04-30 11:28:35 51°18.414 2°51.213 8.1 259 10.8 101080 39
2010-04-30 11:28:41 51°18.414 2°51.216 7.4 280 10.8 101080 39
2010-04-30 11:28:46 51°18.414 2°51.217 6.2 265 10.8 101070 40
2010-04-30 11:28:51 51°18.413 2°51.219 7.3 283 10.8 101070 40
2010-04-30 11:28:55 51°18.413 2°51.221 5.9 265 10.8 101070 38
2010-04-30 11:29:01 51°18.413 2°51.223 7.6 284 10.8 101070 38
2010-04-30 11:29:05 51°18.413 2°51.224 7.4 261 10.8 101070 38
2010-04-30 11:29:11 51°18.412 2°51.227 7.1 282 10.8 101070 38
2010-04-30 11:29:15 51°18.412 2°51.229 7.8 262 10.8 101070 38
2010-04-30 11:29:21 51°18.412 2°51.231 6.8 286 10.8 101070 38
2010-04-30 11:29:26 51°18.412 2°51.233 9.3 260 10.8 101070 40
2010-04-30 11:29:31 51°18.411 2°51.235 7.6 280 10.8 101070 40
2010-04-30 11:29:36 51°18.411 2°51.237 8.9 258 10.8 101080 40
2010-04-30 11:29:41 51°18.411 2°51.239 10.3 285 10.8 101080 40
2010-04-30 11:29:46 51°18.412 2°51.241 6.8 262 10.8 101080 38
2010-04-30 11:29:51 51°18.412 2°51.242 8.6 285 10.8 101080 38
2010-04-30 11:29:55 51°18.412 2°51.244 9 260 10.8 101070 39
2010-04-30 11:30:01 51°18.413 2°51.246 8.7 280 10.8 101070 39
2010-04-30 11:30:06 51°18.414 2°51.247 8.6 261 10.8 101070 39
2010-04-30 11:30:11 51°18.416 2°51.249 9.7 284 10.8 101070 39
2010-04-30 11:30:15 51°18.417 2°51.249 8 262 10.8 101060 38
2010-04-30 11:30:21 51°18.42 2°51.251 8.8 286 10.8 101060 38
2010-04-30 11:30:26 51°18.422 2°51.251 8.5 262 10.8 101070 39
2010-04-30 11:30:31 51°18.425 2°51.252 8.2 286 10.8 101070 39
2010-04-30 11:30:35 51°18.427 2°51.252 8.9 261 10.8 101070 38
2010-04-30 11:30:41 51°18.432 2°51.253 7.2 286 10.8 101070 38
2010-04-30 11:30:46 51°18.436 2°51.254 6.5 265 10.8 101070 39
2010-04-30 11:30:51 51°18.44 2°51.255 7.2 285 10.8 101070 39
2010-04-30 11:30:55 51°18.444 2°51.256 5.2 266 10.8 101080 39
2010-04-30 11:31:01 51°18.45 2°51.259 5.5 282 10.8 101080 39
2010-04-30 11:31:05 51°18.453 2°51.261 7.5 270 10.8 101080 38
2010-04-30 11:31:11 51°18.46 2°51.265 8.5 280 10.8 101080 38
2010-04-30 11:31:15 51°18.464 2°51.269 7.3 28 10.8 101080 38
2010-04-30 11:31:21 51°18.47 2°51.276 6.1 80 10.8 101080 38
2010-04-30 11:31:26 51°18.475 2°51.283 8.7 22 10.8 101070 39
2010-04-30 11:31:31 51°18.479 2°51.291 7.3 75 10.8 101070 39
2010-04-30 11:31:35 51°18.482 2°51.299 5.3 20 10.8 101080 38
2010-04-30 11:31:41 51°18.485 2°51.31 6.6 74 10.8 101080 38
2010-04-30 11:31:46 51°18.487 2°51.321 4.7 23 10.8 101080 37
2010-04-30 11:31:51 51°18.488 2°51.332 6.7 80 10.8 101080 37
2010-04-30 11:31:55 51°18.489 2°51.342 8.4 23 10.7 101090 37
2010-04-30 11:32:01 51°18.488 2°51.356 8.1 40 10.7 101090 37
2010-04-30 11:32:06 51°18.487 2°51.368 7.3 38 10.8 101090 38
2010-04-30 11:32:11 51°18.484 2°51.379 8.4 39 10.8 101090 38
2010-04-30 11:32:15 51°18.482 2°51.388 8.7 31 10.8 101100 39
2010-04-30 11:32:21 51°18.478 2°51.401 8.8 31 10.8 101100 39
2010-04-30 11:32:26 51°18.473 2°51.411 8.4 25 10.7 101110 38
2010-04-30 11:32:31 51°18.468 2°51.419 8 21 10.7 101110 38
2010-04-30 11:32:35 51°18.463 2°51.426 7.2 17 10.7 101090 39
2010-04-30 11:32:40 51°18.457 2°51.433 8.8 18 10.7 101090 39
2010-04-30 11:32:46 51°18.45 2°51.44 9 14 10.7 101090 39
2010-04-30 11:32:51 51°18.443 2°51.445 9.8 11 10.7 101090 39
2010-04-30 11:32:55 51°18.437 2°51.447 8.2 8 10.7 101090 38
2010-04-30 11:33:01 51°18.429 2°51.451 8.4 6 10.7 101090 38
2010-04-30 11:33:06 51°18.422 2°51.453 8.6 5 10.8 101080 38
2010-04-30 11:33:11 51°18.415 2°51.455 7.8 5 10.8 101080 38
2010-04-30 11:33:15 51°18.408 2°51.455 8.2 3 10.8 101080 38
2010-04-30 11:33:21 51°18.4 2°51.456 10.1 -999 10.8 101080 38
2010-04-30 11:33:26 51°18.392 2°51.457 7.5 6 10.7 101090 39
2010-04-30 11:33:31 51°18.384 2°51.457 8.4 3 10.7 101090 39
2010-04-30 11:33:35 51°18.377 2°51.458 10.9 4 10.7 101060 38
2010-04-30 11:33:41 51°18.368 2°51.46 9.4 3 10.7 101060 38
2010-04-30 11:33:46 51°18.359 2°51.461 9.2 6 10.7 101070 39
2010-04-30 11:33:51 51°18.35 2°51.464 7.9 3 10.7 101070 39
2010-04-30 11:33:55 51°18.343 2°51.466 8 5 10.7 101050 38
2010-04-30 11:34:01 51°18.333 2°51.469 8.3 8 10.7 101050 38
2010-04-30 11:34:06 51°18.324 2°51.472 8.3 7 10.7 101060 39
2010-04-30 11:34:11 51°18.315 2°51.475 9.9 8 10.7 101060 39
2010-04-30 11:34:15 51°18.307 2°51.478 10 11 10.7 101060 37
2010-04-30 11:34:21 51°18.297 2°51.484 9 13 10.7 101060 37
2010-04-30 11:34:26 51°18.288 2°51.489 10.6 10 10.7 101050 37
2010-04-30 11:34:31 51°18.279 2°51.495 7.3 8 10.7 101050 37
2010-04-30 11:34:35 51°18.271 2°51.499 9 8 10.7 101060 38
2010-04-30 11:34:41 51°18.26 2°51.504 11.5 8 10.7 101060 38
2010-04-30 11:34:46 51°18.251 2°51.509 10.2 7 10.7 101060 38
2010-04-30 11:34:51 51°18.242 2°51.514 10.2 10 10.7 101060 38
2010-04-30 11:34:55 51°18.234 2°51.519 8.9 7 10.7 101060 39
2010-04-30 11:35:01 51°18.223 2°51.525 10.4 8 10.7 101060 39
2010-04-30 11:35:06 51°18.214 2°51.531 11.2 11 10.7 101070 38
2010-04-30 11:35:11 51°18.204 2°51.537 9.1 10 10.7 101070 38
2010-04-30 11:35:15 51°18.197 2°51.541 10.4 6 10.7 101060 38
2010-04-30 11:35:21 51°18.186 2°51.548 10.7 9 10.7 101060 38
2010-04-30 11:35:26 51°18.177 2°51.555 10.3 14 10.7 101050 38
2010-04-30 11:35:31 51°18.167 2°51.561 9.9 10 10.7 101050 38
2010-04-30 11:35:35 51°18.16 2°51.566 8.3 8 10.7 101060 39
2010-04-30 11:35:41 51°18.149 2°51.573 8.6 8 10.7 101060 39
2010-04-30 11:35:46 51°18.14 2°51.579 8.1 3 10.7 101060 39
2010-04-30 11:35:51 51°18.13 2°51.585 8.8 6 10.7 101060 39
2010-04-30 11:35:55 51°18.123 2°51.59 9.1 6 10.7 101060 38
2010-04-30 11:36:01 51°18.111 2°51.597 9.6 7 10.7 101060 38
2010-04-30 11:36:05 51°18.104 2°51.601 10.2 9 10.7 101060 39
2010-04-30 11:36:11 51°18.093 2°51.607 7.9 7 10.7 101060 39
2010-04-30 11:36:15 51°18.085 2°51.611 9.8 7 10.7 101060 39
2010-04-30 11:36:21 51°18.074 2°51.617 9.5 7 10.7 101060 39
2010-04-30 11:36:26 51°18.064 2°51.622 7.8 6 10.7 101060 39
2010-04-30 11:36:31 51°18.055 2°51.627 8 6 10.7 101060 39
2010-04-30 11:36:36 51°18.045 2°51.632 7.8 5 10.7 101060 39
2010-04-30 11:36:41 51°18.036 2°51.636 8.6 1 10.7 101060 39
2010-04-30 11:36:46 51°18.027 2°51.64 10.1 -999 10.6 101050 39
2010-04-30 11:36:51 51°18.018 2°51.64 10.7 1 10.6 101050 39
2010-04-30 11:36:55 51°18.011 2°51.641 11.3 357 10.7 101060 38
2010-04-30 11:37:01 51°18 2°51.639 9.4 353 10.7 101060 38
2010-04-30 11:37:06 51°17.993 2°51.636 10.7 350 10.7 101050 38
2010-04-30 11:37:11 51°17.986 2°51.633 10.2 284 10.7 101050 38
2010-04-30 11:37:15 51°17.981 2°51.629 8.9 341 10.7 101050 38
2010-04-30 11:37:21 51°17.974 2°51.622 9.7 283 10.7 101050 38
2010-04-30 11:37:26 51°17.969 2°51.616 9.6 337 10.7 101060 38
2010-04-30 11:37:31 51°17.965 2°51.609 9.4 286 10.7 101060 38
2010-04-30 11:37:35 51°17.962 2°51.604 9.9 334 10.7 101050 38
2010-04-30 11:37:41 51°17.958 2°51.594 10.1 287 10.7 101050 38
2010-04-30 11:37:46 51°17.957 2°51.586 10.1 323 10.7 101060 39
2010-04-30 11:37:51 51°17.955 2°51.578 10.4 281 10.7 101060 39
2010-04-30 11:37:55 51°17.955 2°51.572 9.4 316 10.7 101070 38
2010-04-30 11:38:01 51°17.956 2°51.563 9.4 284 10.7 101070 38
2010-04-30 11:38:05 51°17.957 2°51.558 10.5 23 10.8 101070 39
2010-04-30 11:38:11 51°17.958 2°51.552 10.1 284 10.8 101070 39
2010-04-30 11:38:15 51°17.959 2°51.549 9.7 23 10.7 101050 38
2010-04-30 11:38:21 51°17.961 2°51.546 9 282 10.7 101050 38
2010-04-30 11:38:26 51°17.962 2°51.544 8.9 22 10.7 101060 39
2010-04-30 11:38:31 51°17.964 2°51.543 9.7 285 10.7 101060 39
2010-04-30 11:38:36 51°17.966 2°51.542 9.8 24 10.8 101050 38
2010-04-30 11:38:41 51°17.967 2°51.542 9.8 286 10.8 101050 38
2010-04-30 11:38:46 51°17.968 2°51.543 8.8 25 10.8 101070 38
2010-04-30 11:38:51 51°17.969 2°51.543 10.1 282 10.8 101070 38
2010-04-30 11:38:55 51°17.97 2°51.544 9.3 248 10.8 101050 38
2010-04-30 11:39:01 51°17.972 2°51.545 9.5 284 10.8 101050 38
2010-04-30 11:39:06 51°17.973 2°51.546 8.9 20 10.8 101070 39
2010-04-30 11:39:11 51°17.975 2°51.547 10 282 10.8 101070 39
2010-04-30 11:39:15 51°17.976 2°51.548 9.3 21 10.8 101080 39
2010-04-30 11:39:21 51°17.977 2°51.549 9.2 286 10.8 101080 39
2010-04-30 11:39:26 51°17.978 2°51.55 9.6 19 10.8 101070 39
2010-04-30 11:39:31 51°17.98 2°51.552 8.2 286 10.8 101070 39
2010-04-30 11:39:35 51°17.98 2°51.552 8.1 25 10.8 101080 39
2010-04-30 11:39:41 51°17.982 2°51.554 8.1 282 10.8 101080 39
2010-04-30 11:39:46 51°17.983 2°51.555 9.1 246 10.8 101080 36
2010-04-30 11:39:51 51°17.984 2°51.557 10.3 282 10.8 101080 36
2010-04-30 11:39:55 51°17.984 2°51.558 7.9 247 10.8 101080 39
2010-04-30 11:40:01 51°17.985 2°51.56 8.4 284 10.8 101080 39
2010-04-30 11:40:05 51°17.986 2°51.561 9.2 23 10.9 101080 39
2010-04-30 11:40:11 51°17.987 2°51.564 8.7 280 10.9 101080 39
2010-04-30 11:40:15 51°17.988 2°51.565 8.3 248 10.8 101070 38
2010-04-30 11:40:21 51°17.989 2°51.568 8.9 280 10.8 101070 38
2010-04-30 11:40:26 51°17.989 2°51.57 8.4 244 10.9 101080 38
2010-04-30 11:40:31 51°17.99 2°51.572 9.2 281 10.9 101080 38
2010-04-30 11:40:36 51°17.991 2°51.574 7.3 250 10.9 101080 39
2010-04-30 11:40:41 51°17.991 2°51.577 8.4 284 10.9 101080 39
2010-04-30 11:40:46 51°17.992 2°51.579 8.2 247 10.9 101090 38
2010-04-30 11:40:51 51°17.993 2°51.582 7.7 282 10.9 101090 38
2010-04-30 11:40:55 51°17.993 2°51.584 9 23 10.9 101070 39
2010-04-30 11:41:01 51°17.994 2°51.587 9.8 280 10.9 101070 39
2010-04-30 11:41:06 51°17.994 2°51.59 9.9 21 10.9 101080 38
2010-04-30 11:41:11 51°17.995 2°51.593 7.8 286 10.9 101080 38
2010-04-30 11:41:15 51°17.995 2°51.595 9.1 18 11 101090 39
2010-04-30 11:41:21 51°17.996 2°51.598 9.4 285 11 101090 39
2010-04-30 11:41:26 51°17.996 2°51.601 10.1 23 10.9 101080 39
2010-04-30 11:41:31 51°17.997 2°51.604 8.5 285 10.9 101080 39
2010-04-30 11:41:35 51°17.997 2°51.606 9.5 251 11 101080 39
2010-04-30 11:41:40 51°17.997 2°51.609 8.7 284 11 101080 39
2010-04-30 11:41:46 51°17.998 2°51.613 7.9 249 10.9 101080 38
2010-04-30 11:41:51 51°17.998 2°51.616 7.8 281 10.9 101080 38
2010-04-30 11:41:55 51°17.999 2°51.618 8.7 249 10.9 101080 39
2010-04-30 11:42:01 51°17.999 2°51.622 7.9 280 10.9 101080 39
2010-04-30 11:42:05 51°17.999 2°51.624 8.2 251 11 101080 38
2010-04-30 11:42:11 51°17.999 2°51.628 6.7 284 11 101080 38
2010-04-30 11:42:15 51°18 2°51.631 9.4 254 11 101080 38
2010-04-30 11:42:21 51°18 2°51.635 8.1 285 11 101080 38
2010-04-30 11:42:26 51°18 2°51.639 9.6 256 11 101090 37
2010-04-30 11:42:31 51°18 2°51.642 7.5 302 11 101090 37
2010-04-30 11:42:36 51°18.001 2°51.645 8.4 258 11 101090 38
2010-04-30 11:42:41 51°18.001 2°51.648 8.3 282 11 101090 38
2010-04-30 11:42:46 51°18.001 2°51.652 9.5 260 11 101090 38
2010-04-30 11:42:51 51°18.001 2°51.655 7.4 284 11 101090 38
2010-04-30 11:42:55 51°18.001 2°51.657 8.9 256 11 101090 39
2010-04-30 11:43:01 51°18.001 2°51.661 6.6 278 11 101090 39
2010-04-30 11:43:05 51°18.001 2°51.664 9.1 255 11 101090 39
2010-04-30 11:43:11 51°18.001 2°51.668 9.1 284 11 101090 39
2010-04-30 11:43:15 51°18.001 2°51.67 8.8 260 11.1 101090 39
2010-04-30 11:43:21 51°18.001 2°51.674 6.9 283 11.1 101090 39
2010-04-30 11:43:26 51°18.001 2°51.678 7.5 261 11.1 101100 39
2010-04-30 11:43:31 51°18.001 2°51.681 9 279 11.1 101100 39
2010-04-30 11:43:35 51°18.001 2°51.684 7.3 262 11.1 101110 39
2010-04-30 11:43:41 51°18.001 2°51.688 6.3 284 11.1 101110 39
2010-04-30 11:43:46 51°18.001 2°51.691 7.1 264 11.1 101100 38
2010-04-30 11:43:51 51°18.001 2°51.695 8.4 279 11.1 101100 38
2010-04-30 11:43:55 51°18.001 2°51.697 7.4 261 11 101090 39
2010-04-30 11:44:00 51°18.001 2°51.701 7.4 286 11 101090 39
2010-04-30 11:44:06 51°18.001 2°51.704 5.7 263 11 101100 37
2010-04-30 11:44:11 51°18.001 2°51.708 6.4 279 11 101100 37
2010-04-30 11:44:15 51°18.001 2°51.71 7.6 264 11 101110 39
2010-04-30 11:44:21 51°18.001 2°51.714 7.4 279 11 101110 39
2010-04-30 11:44:26 51°18.002 2°51.716 6 265 11 101090 38
2010-04-30 11:44:31 51°18.002 2°51.72 8.2 301 11 101090 38
2010-04-30 11:44:36 51°18.002 2°51.723 5.3 262 11 101100 40
2010-04-30 11:44:42 51°18.002 2°51.727 5.5 282 11 101100 40
2010-04-30 11:44:46 51°18.002 2°51.729 5.6 264 11 101100 39
2010-04-30 11:44:51 51°18.003 2°51.733 5.9 280 11 101100 39
2010-04-30 11:44:55 51°18.003 2°51.736 9 261 11 101100 37
2010-04-30 11:45:01 51°18.003 2°51.74 7.1 286 11 101100 37
2010-04-30 11:45:06 51°18.004 2°51.743 7.9 263 11 101100 37
2010-04-30 11:45:11 51°18.003 2°51.747 8.4 284 11 101100 37
2010-04-30 11:45:16 51°18.003 2°51.75 10.6 258 11 101100 38
2010-04-30 11:45:21 51°18.004 2°51.753 7.6 281 11 101100 38
2010-04-30 11:45:26 51°18.003 2°51.756 7.4 261 11 101100 38
2010-04-30 11:45:31 51°18.003 2°51.759 9.9 280 11 101100 38
2010-04-30 11:45:35 51°18.003 2°51.761 10 259 11 101100 38
2010-04-30 11:45:42 51°18.003 2°51.766 7.6 284 11 101100 38
2010-04-30 11:45:46 51°18.003 2°51.768 8.9 260 11 101100 38
2010-04-30 11:45:52 51°18.003 2°51.772 8.9 283 11 101100 38
2010-04-30 11:45:55 51°18.003 2°51.774 8.8 259 11 101100 38
2010-04-30 11:46:02 51°18.004 2°51.779 8.6 285 11 101100 38
2010-04-30 11:46:06 51°18.004 2°51.781 7.8 260 11 101100 38
2010-04-30 11:46:11 51°18.004 2°51.785 7.8 283 11 101100 38
2010-04-30 11:46:15 51°18.004 2°51.788 6.6 261 11 101100 39
2010-04-30 11:46:21 51°18.005 2°51.791 6.4 279 11 101100 39
2010-04-30 11:46:26 51°18.005 2°51.794 8.4 260 11 101100 40
2010-04-30 11:46:31 51°18.005 2°51.798 8.2 281 11 101100 40
2010-04-30 11:46:35 51°18.005 2°51.801 7.6 257 11 101090 38
2010-04-30 11:46:41 51°18.005 2°51.804 7.3 286 11 101090 38
2010-04-30 11:46:46 51°18.005 2°51.808 9.9 258 11 101090 39
2010-04-30 11:46:51 51°18.005 2°51.811 6.9 278 11 101090 39
2010-04-30 11:46:55 51°18.005 2°51.813 7.3 261 11.1 101100 38
2010-04-30 11:47:01 51°18.006 2°51.817 8.8 281 11.1 101100 38
2010-04-30 11:47:06 51°18.006 2°51.82 7.9 261 11.1 101100 38
2010-04-30 11:47:12 51°18.008 2°51.824 8.2 279 11.1 101100 38
2010-04-30 11:47:16 51°18.007 2°51.825 9.8 259 11.1 101090 40
2010-04-30 11:47:21 51°18.009 2°51.829 7.7 277 11.1 101090 40
2010-04-30 11:47:26 51°18.01 2°51.832 9.9 256 11 101110 39
2010-04-30 11:47:31 51°18.012 2°51.835 9 281 11 101110 39
2010-04-30 11:47:35 51°18.013 2°51.836 8.7 256 11.1 101100 38
2010-04-30 11:47:41 51°18.015 2°51.838 7.8 283 11.1 101100 38
2010-04-30 11:47:46 51°18.017 2°51.84 7.4 248 11 101100 37
2010-04-30 11:47:51 51°18.019 2°51.841 7.2 282 11 101100 37
2010-04-30 11:47:55 51°18.021 2°51.841 9.4 24 11 101090 37
2010-04-30 11:48:01 51°18.023 2°51.842 8.8 278 11 101090 37
2010-04-30 11:48:06 51°18.025 2°51.843 7.2 28 11 101090 38
2010-04-30 11:48:11 51°18.027 2°51.843 9.1 278 11 101090 38
2010-04-30 11:48:15 51°18.029 2°51.842 9.5 25 11.1 101090 38
2010-04-30 11:48:21 51°18.031 2°51.842 8.4 277 11.1 101090 38
2010-04-30 11:48:26 51°18.033 2°51.841 8.9 23 11.1 101080 39
2010-04-30 11:48:31 51°18.034 2°51.84 8.6 286 11.1 101080 39
2010-04-30 11:48:35 51°18.036 2°51.839 8.1 25 11 101080 39
2010-04-30 11:48:41 51°18.038 2°51.837 9.6 280 11 101080 39
2010-04-30 11:48:46 51°18.04 2°51.835 9.4 318 11 101080 39
2010-04-30 11:48:51 51°18.041 2°51.832 9 284 11 101080 39
2010-04-30 11:48:55 51°18.042 2°51.83 9.2 320 11 101070 39
2010-04-30 11:49:01 51°18.043 2°51.825 10 285 11 101070 39
2010-04-30 11:49:06 51°18.044 2°51.821 9.3 324 11 101060 39
2010-04-30 11:49:11 51°18.044 2°51.817 9.4 281 11 101060 39
2010-04-30 11:49:15 51°18.044 2°51.814 9.3 332 11 101070 38
2010-04-30 11:49:21 51°18.043 2°51.808 8.8 283 11 101070 38
2010-04-30 11:49:26 51°18.041 2°51.804 9.2 336 11 101060 39
2010-04-30 11:49:31 51°18.039 2°51.8 8.2 286 11 101060 39
2010-04-30 11:49:36 51°18.037 2°51.797 8.9 342 11 101070 38
2010-04-30 11:49:41 51°18.034 2°51.794 9.7 279 11 101070 38
2010-04-30 11:49:46 51°18.03 2°51.792 10.1 350 11 101080 38
2010-04-30 11:49:51 51°18.026 2°51.791 10.5 352 11 101080 38
2010-04-30 11:49:55 51°18.023 2°51.791 9.4 358 11 101070 38
2010-04-30 11:50:01 51°18.018 2°51.792 9.8 1 11 101070 38
2010-04-30 11:50:06 51°18.013 2°51.793 8.4 5 10.9 101050 39
2010-04-30 11:50:11 51°18.008 2°51.796 9.4 5 10.9 101050 39
2010-04-30 11:50:15 51°18.004 2°51.798 8.7 7 10.9 101060 37
2010-04-30 11:50:21 51°17.996 2°51.803 8.5 7 10.9 101060 37
2010-04-30 11:50:26 51°17.988 2°51.808 6.7 7 10.9 101050 38
2010-04-30 11:50:31 51°17.98 2°51.813 8.3 5 10.9 101050 38
2010-04-30 11:50:35 51°17.972 2°51.818 8.6 4 10.9 101060 39
2010-04-30 11:50:40 51°17.962 2°51.824 8 2 10.9 101060 39
2010-04-30 11:50:46 51°17.949 2°51.831 8.6 6 10.9 101060 39
2010-04-30 11:50:51 51°17.937 2°51.839 8.9 4 10.9 101060 39
2010-04-30 11:50:55 51°17.926 2°51.845 9.5 -999 10.9 101060 39
2010-04-30 11:51:01 51°17.909 2°51.854 9.5 1 10.9 101060 39
2010-04-30 11:51:06 51°17.894 2°51.862 9 2 10.9 101060 39
2010-04-30 11:51:11 51°17.879 2°51.872 10.5 360 10.9 101060 39
2010-04-30 11:51:15 51°17.867 2°51.878 9.4 1 10.9 101050 39
2010-04-30 11:51:20 51°17.85 2°51.889 10.2 2 10.9 101050 39
2010-04-30 11:51:26 51°17.831 2°51.902 9.2 3 10.8 101060 38
2010-04-30 11:51:31 51°17.815 2°51.914 8.5 1 10.8 101060 38
2010-04-30 11:51:35 51°17.802 2°51.923 9.9 1 10.8 101060 39
2010-04-30 11:51:41 51°17.782 2°51.937 8.6 4 10.8 101060 39
2010-04-30 11:51:46 51°17.766 2°51.949 9.1 4 10.8 101050 39
2010-04-30 11:51:51 51°17.75 2°51.963 8.9 6 10.8 101050 39
2010-04-30 11:51:56 51°17.734 2°51.977 8.9 7 10.8 101050 38
2010-04-30 11:52:01 51°17.718 2°51.992 9.9 5 10.8 101050 38
2010-04-30 11:52:06 51°17.703 2°52.007 10.5 7 10.8 101040 39
2010-04-30 11:52:11 51°17.687 2°52.024 8.7 5 10.8 101040 39
2010-04-30 11:52:15 51°17.675 2°52.038 11.9 8 10.8 101040 39
2010-04-30 11:52:21 51°17.657 2°52.058 9.4 5 10.8 101040 39
2010-04-30 11:52:26 51°17.642 2°52.078 8.7 11 10.8 101050 38
2010-04-30 11:52:31 51°17.628 2°52.096 9.5 9 10.8 101050 38
2010-04-30 11:52:35 51°17.616 2°52.111 12.3 15 10.8 101050 38
2010-04-30 11:52:40 51°17.602 2°52.131 10.1 12 10.8 101050 38
2010-04-30 11:52:46 51°17.584 2°52.153 11.2 9 10.8 101050 39
2010-04-30 11:52:51 51°17.569 2°52.168 7.9 2 10.8 101050 39
2010-04-30 11:52:55 51°17.556 2°52.18 8.3 3 10.8 101060 38
2010-04-30 11:53:01 51°17.537 2°52.195 7.4 5 10.8 101060 38
2010-04-30 11:53:06 51°17.521 2°52.209 8.6 7 10.8 101050 37
2010-04-30 11:53:11 51°17.505 2°52.223 7.7 1 10.8 101050 37
2010-04-30 11:53:15 51°17.493 2°52.237 9.3 8 10.7 101060 38
2010-04-30 11:53:21 51°17.475 2°52.256 8.6 8 10.7 101060 38
2010-04-30 11:53:26 51°17.461 2°52.276 8.9 7 10.7 101050 38
2010-04-30 11:53:31 51°17.447 2°52.296 8.3 9 10.7 101050 38
2010-04-30 11:53:35 51°17.437 2°52.313 8.8 15 10.7 101060 38
2010-04-30 11:53:41 51°17.422 2°52.339 7.8 14 10.7 101060 38
2010-04-30 11:53:46 51°17.41 2°52.363 8.4 7 10.7 101060 38
2010-04-30 11:53:51 51°17.398 2°52.386 7.6 10 10.7 101060 38
2010-04-30 11:53:55 51°17.389 2°52.405 8.6 16 10.7 101070 39
2010-04-30 11:54:01 51°17.374 2°52.433 8.3 14 10.7 101070 39
2010-04-30 11:54:05 51°17.365 2°52.452 8.3 13 10.7 101060 39
2010-04-30 11:54:11 51°17.351 2°52.479 7.5 14 10.7 101060 39
2010-04-30 11:54:15 51°17.341 2°52.498 8.4 9 10.7 101070 38
2010-04-30 11:54:21 51°17.327 2°52.526 8.5 10 10.7 101070 38
2010-04-30 11:54:26 51°17.314 2°52.548 8.8 10 10.7 101070 38
2010-04-30 11:54:31 51°17.301 2°52.569 8.1 12 10.7 101070 38
2010-04-30 11:54:35 51°17.292 2°52.588 7.7 11 10.7 101070 39
2010-04-30 11:54:41 51°17.276 2°52.613 8.1 9 10.7 101070 39
2010-04-30 11:54:46 51°17.262 2°52.634 8.9 11 10.7 101070 38
2010-04-30 11:54:51 51°17.248 2°52.653 8.9 9 10.7 101070 38
2010-04-30 11:54:55 51°17.237 2°52.669 5.9 5 10.7 101060 39
2010-04-30 11:55:00 51°17.223 2°52.687 7.9 6 10.7 101060 39
2010-04-30 11:55:06 51°17.204 2°52.707 8 4 10.7 101070 39
2010-04-30 11:55:11 51°17.189 2°52.722 9.5 7 10.7 101070 39
2010-04-30 11:55:15 51°17.176 2°52.732 8.5 4 10.8 101060 39
2010-04-30 11:55:20 51°17.16 2°52.746 10.2 2 10.8 101060 39
2010-04-30 11:55:26 51°17.14 2°52.758 11.9 358 10.8 101060 39
2010-04-30 11:55:31 51°17.123 2°52.768 9.5 357 10.8 101060 39
2010-04-30 11:55:35 51°17.109 2°52.774 9.5 359 10.7 101050 38
2010-04-30 11:55:41 51°17.088 2°52.785 10.3 359 10.7 101050 38
2010-04-30 11:55:46 51°17.072 2°52.794 8.3 3 10.7 101060 38
2010-04-30 11:55:51 51°17.055 2°52.804 9.4 2 10.7 101060 38
2010-04-30 11:55:56 51°17.038 2°52.816 8.8 1 10.7 101050 39
2010-04-30 11:56:01 51°17.022 2°52.827 9.1 -999 10.7 101050 39
2010-04-30 11:56:06 51°17.006 2°52.841 7.9 4 10.7 101050 39
2010-04-30 11:56:11 51°16.99 2°52.854 9.1 5 10.7 101050 39
2010-04-30 11:56:15 51°16.977 2°52.867 8 8 10.7 101050 39
2010-04-30 11:56:21 51°16.959 2°52.886 7.8 5 10.7 101050 39
2010-04-30 11:56:26 51°16.944 2°52.904 9.2 9 10.7 101050 38
2010-04-30 11:56:31 51°16.929 2°52.92 8.2 9 10.7 101050 38
2010-04-30 11:56:36 51°16.916 2°52.941 7.9 8 10.7 101050 38
2010-04-30 11:56:41 51°16.901 2°52.96 8.3 10 10.7 101050 38
2010-04-30 11:56:46 51°16.889 2°52.982 8.6 14 10.7 101060 39
2010-04-30 11:56:51 51°16.876 2°53.004 6.8 8 10.7 101060 39
2010-04-30 11:56:55 51°16.866 2°53.022 7.9 17 10.7 101060 38
2010-04-30 11:57:00 51°16.855 2°53.046 8.4 18 10.7 101060 38
2010-04-30 11:57:06 51°16.841 2°53.075 7.2 19 10.7 101060 39
2010-04-30 11:57:11 51°16.83 2°53.1 6.6 16 10.7 101060 39
2010-04-30 11:57:15 51°16.822 2°53.121 5.9 16 10.7 101060 39
2010-04-30 11:57:21 51°16.811 2°53.154 6.2 13 10.7 101060 39
2010-04-30 11:57:26 51°16.801 2°53.18 5.9 18 10.7 101070 38
2010-04-30 11:57:31 51°16.794 2°53.208 6.1 24 10.7 101070 38
2010-04-30 11:57:35 51°16.788 2°53.228 6.5 25 10.7 101070 39
2010-04-30 11:57:40 51°16.783 2°53.253 5.9 27 10.7 101070 39
2010-04-30 11:57:46 51°16.777 2°53.282 7.1 28 10.7 101080 37
2010-04-30 11:57:51 51°16.771 2°53.304 7 29 10.7 101080 37
2010-04-30 11:57:55 51°16.767 2°53.321 5.9 20 10.7 101080 37
2010-04-30 11:58:01 51°16.76 2°53.343 7 21 10.7 101080 37
2010-04-30 11:58:06 51°16.753 2°53.358 7.5 16 10.7 101080 39
2010-04-30 11:58:11 51°16.745 2°53.37 7.3 14 10.7 101080 39
2010-04-30 11:58:15 51°16.74 2°53.379 9.2 11 10.7 101070 38
2010-04-30 11:58:21 51°16.731 2°53.389 9.8 10 10.7 101070 38
2010-04-30 11:58:26 51°16.724 2°53.397 10.4 9 10.7 101070 38
2010-04-30 11:58:31 51°16.717 2°53.402 7.7 7 10.7 101070 38
2010-04-30 11:58:36 51°16.71 2°53.407 8.4 2 10.8 101070 38
2010-04-30 11:58:41 51°16.704 2°53.41 9.1 2 10.8 101070 38
2010-04-30 11:58:46 51°16.697 2°53.412 9.7 359 10.7 101070 38
2010-04-30 11:58:51 51°16.691 2°53.413 10.4 355 10.7 101070 38
2010-04-30 11:58:55 51°16.686 2°53.414 9.3 352 10.7 101070 38
2010-04-30 11:59:01 51°16.68 2°53.412 8.7 279 10.7 101070 38
2010-04-30 11:59:06 51°16.675 2°53.411 9.3 347 10.7 101060 39
2010-04-30 11:59:11 51°16.671 2°53.408 8.7 282 10.7 101060 39
2010-04-30 11:59:15 51°16.668 2°53.405 9.4 340 10.7 101060 38
2010-04-30 11:59:21 51°16.664 2°53.4 9.4 281 10.7 101060 38
2010-04-30 11:59:26 51°16.661 2°53.395 8.6 334 10.7 101070 39
2010-04-30 11:59:31 51°16.659 2°53.39 9.5 281 10.7 101070 39
2010-04-30 11:59:35 51°16.658 2°53.386 8.8 327 10.7 101070 39
2010-04-30 11:59:41 51°16.657 2°53.38 9.5 281 10.7 101070 39
2010-04-30 11:59:46 51°16.657 2°53.376 9.4 325 10.7 101060 38
2010-04-30 11:59:51 51°16.657 2°53.373 8.8 280 10.7 101060 38
2010-04-30 11:59:55 51°16.658 2°53.37 8.4 321 10.7 101080 38
2010-04-30 12:00:00 51°16.658 2°53.369 8.4 281 10.7 101080 38
2010-04-30 12:00:06 51°16.659 2°53.367 8.6 317 10.7 101070 38
2010-04-30 12:00:11 51°16.66 2°53.366 8.5 281 10.7 101070 38
2010-04-30 12:00:15 51°16.661 2°53.365 7.9 317 10.7 101060 39
2010-04-30 12:00:21 51°16.662 2°53.365 7.4 281 10.7 101060 39
2010-04-30 12:00:26 51°16.664 2°53.365 7.4 20 10.7 101060 37
2010-04-30 12:00:31 51°16.666 2°53.366 7.9 279 10.7 101060 37
2010-04-30 12:00:35 51°16.667 2°53.366 7.4 24 10.8 101060 38
2010-04-30 12:00:41 51°16.669 2°53.367 9.2 285 10.8 101060 38
2010-04-30 12:00:46 51°16.671 2°53.369 8.9 22 10.7 101070 39
2010-04-30 12:00:51 51°16.672 2°53.371 9.2 280 10.7 101070 39
2010-04-30 12:00:55 51°16.673 2°53.372 8.7 23 10.8 101060 38
2010-04-30 12:01:01 51°16.676 2°53.375 9.7 283 10.8 101060 38
2010-04-30 12:01:06 51°16.677 2°53.377 9.3 22 10.8 101070 37
2010-04-30 12:01:11 51°16.679 2°53.38 9.4 285 10.8 101070 37
2010-04-30 12:01:15 51°16.68 2°53.382 8.6 33 10.8 101060 38
2010-04-30 12:01:21 51°16.683 2°53.386 8.8 280 10.8 101060 38
2010-04-30 12:01:26 51°16.684 2°53.389 10.6 22 10.8 101070 39
2010-04-30 12:01:31 51°16.686 2°53.393 9.5 283 10.8 101070 39
2010-04-30 12:01:35 51°16.688 2°53.396 8.7 20 10.8 101060 39
2010-04-30 12:01:41 51°16.69 2°53.4 9 285 10.8 101060 39
2010-04-30 12:01:46 51°16.692 2°53.403 9.3 23 10.8 101070 38
2010-04-30 12:01:51 51°16.694 2°53.407 8.6 280 10.8 101070 38
2010-04-30 12:01:55 51°16.695 2°53.409 8.3 24 10.8 101070 38
2010-04-30 12:02:00 51°16.698 2°53.413 9.6 284 10.8 101070 38
2010-04-30 12:02:06 51°16.7 2°53.417 8.6 23 10.9 101070 38
2010-04-30 12:02:11 51°16.702 2°53.42 9.9 285 10.9 101070 38
2010-04-30 12:02:15 51°16.703 2°53.423 8.7 24 10.9 101070 38
2010-04-30 12:02:21 51°16.706 2°53.427 8.6 278 10.9 101070 38
2010-04-30 12:02:26 51°16.708 2°53.43 9.1 20 10.9 101070 38
2010-04-30 12:02:31 51°16.71 2°53.434 9 280 10.9 101070 38
2010-04-30 12:02:35 51°16.711 2°53.437 8.9 25 10.9 101060 38
2010-04-30 12:02:40 51°16.714 2°53.44 9.4 285 10.9 101060 38
2010-04-30 12:02:46 51°16.716 2°53.443 9.5 25 10.9 101070 38
2010-04-30 12:02:51 51°16.718 2°53.446 10.3 281 10.9 101070 38
2010-04-30 12:02:55 51°16.72 2°53.448 11.1 26 10.9 101080 38
2010-04-30 12:03:01 51°16.723 2°53.451 10.8 282 10.9 101080 38
2010-04-30 12:03:05 51°16.725 2°53.453 9.7 25 10.9 101070 39
2010-04-30 12:03:11 51°16.727 2°53.456 10.1 285 10.9 101070 39
2010-04-30 12:03:15 51°16.729 2°53.457 8.7 21 10.9 101060 38
2010-04-30 12:03:21 51°16.732 2°53.46 9 286 10.9 101060 38
2010-04-30 12:03:26 51°16.734 2°53.462 8 24 10.9 101060 38
2010-04-30 12:03:31 51°16.737 2°53.463 8.4 283 10.9 101060 38
2010-04-30 12:03:35 51°16.738 2°53.464 8.2 27 10.9 101070 39
2010-04-30 12:03:40 51°16.74 2°53.465 8.9 282 10.9 101070 39
2010-04-30 12:03:46 51°16.743 2°53.466 10 23 10.9 101060 37
2010-04-30 12:03:51 51°16.745 2°53.465 10.8 284 10.9 101060 37
2010-04-30 12:03:55 51°16.747 2°53.464 12 320 10.9 101070 38
2010-04-30 12:04:01 51°16.749 2°53.462 10.4 283 10.9 101070 38
2010-04-30 12:04:06 51°16.75 2°53.458 9.1 326 10.9 101070 39
2010-04-30 12:04:11 51°16.751 2°53.455 10.2 279 10.9 101070 39
2010-04-30 12:04:15 51°16.751 2°53.452 10 333 10.9 101060 38
2010-04-30 12:04:21 51°16.75 2°53.447 9.9 282 10.9 101060 38
2010-04-30 12:04:26 51°16.748 2°53.444 8.8 343 10.9 101060 39